Latest Coastal Weather Observations for Laverton

IDV60701

Issued at 8:31 pm EST Monday 30 May 2016 (issued every 10 minutes, with the page automatically refreshed every 10 minutes)

About coastal observations | Map of coastal stations | Coastal observations for VIC | Marine services | Other Formats
Station Details ID: 087031 Name: LAVERTON RAAF Lat: -37.86 Lon: 144.76 Height: 20.1 m
Data from the previous 72 hours. | See also: Recent months at Laverton
Date/Time
EST
Temp

°C
Wind Pressure Rain
since 9am
mm
Weather Cloud Vis
km
Sea
Height
m
Swell
Dir
 
Speed
knots
Gust
knots
hPa Trend Height
m
Period
s
Dir
30/08:30pm 5.7 NNW 7 8 1027.9 - 0.0 - - 10 - - - -
30/08:00pm 6.1 ENE 5 6 1027.7 - 0.0 - - 10 - - - -
30/07:30pm 8.3 E 4 5 1027.5 - 0.0 - - 10 - - - -
30/07:00pm 9.3 SE 3 4 1027.2 - 0.0 - - 10 - - - -
30/06:30pm 10.3 SSE 5 6 1027.0 - 0.0 - - 10 - - - -
30/06:00pm 10.5 SE 4 5 1026.8 - 0.0 - - 10 - - - -
30/05:30pm 10.5 SE 4 5 1026.7 - 0.0 - - 10 - - - -
30/05:00pm 11.0 SE 5 8 1026.4 - 0.0 - - 10 - - - -
30/04:30pm 12.1 SE 7 9 1026.1 - 0.0 - - 10 - - - -
30/04:00pm 12.7 SE 7 10 1025.9 - 0.0 - - 10 - - - -
30/03:30pm 13.2 SE 6 9 1025.8 - 0.0 - - 10 - - - -
30/03:00pm 13.5 SE 6 9 1025.8 - 0.0 - - 10 - - - -
30/02:30pm 13.4 ESE 7 10 1025.7 - 0.0 - - 10 - - - -
30/02:00pm 13.8 E 6 9 1025.8 - 0.0 - - 10 - - - -
30/01:30pm 14.0 ENE 5 7 1026.0 - 0.0 - - 10 - - - -
30/01:00pm 13.4 ENE 5 11 1026.2 - 0.0 - - 10 - - - -
30/12:30pm 13.2 ENE 7 12 1026.3 - 0.0 - - 10 - - - -
30/12:00pm 13.3 ENE 6 8 1026.7 - 0.0 - - 10 - - - -
30/11:30am 12.9 E 5 8 1026.9 - 0.0 - - 10 - - - -
30/11:00am 12.6 NNE 5 8 1027.3 - 0.0 - - 10 - - - -
30/10:30am 12.0 N 4 6 1027.5 - 0.0 - - 10 - - - -
30/10:00am 10.6 N 5 7 1027.4 - 0.0 - - 10 - - - -
30/09:30am 9.5 N 3 6 1027.3 - 0.0 - Partly cloudy 10 - - - -
30/09:00am 7.8 NNW 5 7 1027.3 - 0.0 - Mostly clear 10 - - - -
30/08:30am 7.3 N 1 5 1027.1 - 0.0 - Partly cloudy 10 - - - -
30/08:00am 6.9 N 1 5 1026.8 - 0.0 - Cloudy 10 - - - -
30/07:30am 6.7 N 4 5 1026.5 - 0.0 - Cloudy 10 - - - -
30/07:00am 6.6 N 3 6 1026.2 - 0.0 - Cloudy 10 - - - -
30/06:30am 6.5 NE 4 5 1025.9 - 0.0 - Cloudy 10 - - - -
30/06:00am 6.5 NNE 3 5 1025.6 - 0.0 - Cloudy 10 - - - -
30/05:30am 6.5 CALM 0 4 1025.3 - 0.0 - Cloudy 10 - - - -
30/05:00am 6.5 CALM 0 0 1024.9 - 0.0 - Cloudy 10 - - - -
30/04:30am 6.6 CALM 0 3 1024.6 - 0.0 - Cloudy 10 - - - -
30/04:00am 6.5 ENE 2 5 1024.5 - 0.0 - Cloudy 10 - - - -
30/03:30am 6.9 NNW 5 7 1024.3 - 0.0 - Cloudy 10 - - - -
30/03:00am 6.9 NW 6 8 1024.4 - 0.0 - Cloudy 10 - - - -
30/02:30am 6.7 NNW 4 6 1024.3 - 0.0 - Cloudy 10 - - - -
30/02:00am 6.6 NW 7 8 1024.2 - 0.0 - Cloudy 10 - - - -
30/01:30am 6.3 NNW 7 9 1024.0 - 0.0 - Cloudy 10 - - - -
30/01:00am 5.8 NNW 4 5 1023.9 - 0.0 - Cloudy 10 - - - -
30/12:30am 5.4 NW 7 9 1023.8 - 0.0 - Partly cloudy 10 - - - -
30/12:00am 5.2 NW 7 7 1023.7 - 0.0 - Mostly clear 10 - - - -
 
Date/Time
EST
Temp

°C
Wind Pressure Rain
since 9am
mm
Weather Cloud Vis
km
Sea
Height
m
Swell
Dir
 
Speed
knots
Gust
knots
hPa Trend Height
m
Period
s
Dir
29/11:30pm 6.8 WNW 5 5 1023.6 - 0.0 - Partly cloudy 10 - - - -
29/11:00pm 7.4 WNW 4 5 1023.5 - 0.0 - Partly cloudy 10 - - - -
29/10:30pm 8.3 W 4 5 1023.4 - 0.0 - Partly cloudy 10 - - - -
29/10:00pm 8.7 NW 6 7 1023.3 - 0.0 - Cloudy 10 - - - -
29/09:30pm 8.8 NW 5 7 1023.2 - 0.0 - Cloudy 10 - - - -
29/09:00pm 9.3 WNW 6 7 1023.2 - 0.0 - Mostly cloudy 10 - - - -
29/08:30pm 9.9 WNW 5 6 1023.1 - 0.0 - Cloudy 10 - - - -
29/08:00pm 10.3 NW 4 5 1022.9 - 0.0 - Cloudy 10 - - - -
29/07:30pm 10.8 WNW 4 5 1022.6 - 0.0 - Cloudy 10 - - - -
29/07:00pm 11.2 WNW 5 6 1022.3 - 0.0 - Cloudy 10 - - - -
29/06:30pm 11.1 WNW 4 5 1022.0 - 0.0 - Cloudy 10 - - - -
29/06:00pm 11.7 W 3 4 1021.8 - 0.0 - Cloudy 10 - - - -
29/05:30pm 11.8 SSW 5 7 1021.5 - 0.0 - Cloudy 10 - - - -
29/05:00pm 12.1 SW 6 9 1021.3 - 0.0 - Cloudy 10 - - - -
29/04:30pm 12.4 WSW 5 7 1021.2 - 0.0 - Cloudy 10 - - - -
29/04:00pm 12.6 SW 5 8 1021.1 - 0.0 - Cloudy 10 - - - -
29/03:30pm 12.8 SW 5 8 1020.9 - 0.0 - Cloudy 10 - - - -
29/03:00pm 13.0 WNW 7 10 1020.8 - 0.0 - Cloudy 10 - - - -
29/02:30pm 12.6 W 9 12 1020.8 - 0.0 - Cloudy 10 - - - -
29/02:00pm 12.4 WSW 10 14 1020.7 - 0.0 - Cloudy 10 - - - -
29/01:30pm 12.5 WSW 8 13 1020.7 - 0.0 - Partly cloudy 10 - - - -
29/01:00pm 12.4 WSW 9 13 1020.8 - 0.0 - Cloudy 10 - - - -
29/12:30pm 12.8 WSW 9 12 1020.7 - 0.0 - Cloudy 10 - - - -
29/12:00pm 12.9 W 9 13 1020.7 - 0.0 - Cloudy 10 - - - -
29/11:30am 12.2 W 9 13 1021.0 - 0.0 - Cloudy 10 - - - -
29/11:00am 11.8 W 9 13 1021.1 - 0.0 - Cloudy 10 - - - -
29/10:30am 11.7 W 11 14 1020.9 - 0.0 - Cloudy 10 - - - -
29/10:00am 11.5 W 11 15 1020.7 - 0.0 - Cloudy 10 - - - -
29/09:30am 11.2 W 9 14 1020.3 - 0.0 - Cloudy 10 - - - -
29/09:00am 11.1 W 9 13 1020.0 - 0.4 - Cloudy 10 - - - -
29/08:30am 10.1 WNW 8 11 1019.7 - 0.4 - Cloudy 10 - - - -
29/08:00am 9.9 WNW 8 11 1019.4 - 0.4 - Cloudy 10 - - - -
29/07:30am 9.9 W 8 11 1019.2 - 0.4 - Cloudy 10 - - - -
29/07:00am 9.7 W 8 11 1018.9 - 0.4 - Cloudy 10 - - - -
29/06:30am 9.9 W 9 12 1018.7 - 0.4 - Cloudy 10 - - - -
29/06:00am 9.9 W 9 13 1018.3 - 0.4 - Cloudy 10 - - - -
29/05:30am 10.0 W 9 13 1018.2 - 0.4 - Cloudy 10 - - - -
29/05:00am 9.8 W 10 13 1018.0 - 0.4 - Cloudy 10 - - - -
29/04:30am 10.0 W 10 13 1017.9 - 0.4 - Cloudy 10 - - - -
29/04:00am 9.9 W 10 13 1017.6 - 0.4 - Cloudy 10 - - - -
29/03:30am 9.7 W 10 15 1017.6 - 0.4 - Cloudy 10 - - - -
29/03:00am 9.9 W 11 15 1017.5 - 0.4 - Cloudy 10 - - - -
29/02:30am 10.0 W 10 13 1017.4 - 0.4 - Cloudy 10 - - - -
29/02:00am 9.9 W 9 13 1017.1 - 0.4 - Cloudy 10 - - - -
29/01:30am 10.0 W 11 17 1016.8 - 0.4 - Cloudy 10 - - - -
29/01:00am 10.0 W 11 16 1016.7 - 0.4 - Cloudy 10 - - - -
29/12:30am 10.2 W 11 15 1016.8 - 0.4 - Cloudy 10 - - - -
29/12:00am 10.1 W 9 12 1016.9 - 0.4 - Cloudy 10 - - - -
 
Date/Time
EST
Temp

°C
Wind Pressure Rain
since 9am
mm
Weather Cloud Vis
km
Sea
Height
m
Swell
Dir
 
Speed
knots
Gust
knots
hPa Trend Height
m
Period
s
Dir
28/11:30pm 10.1 W 9 11 1016.9 - 0.4 - Cloudy 10 - - - -
28/11:00pm 9.9 W 10 14 1016.8 - 0.4 - Cloudy 10 - - - -
28/10:30pm 10.0 W 8 12 1016.6 - 0.4 - Cloudy 10 - - - -
28/10:00pm 10.1 W 8 10 1016.8 - 0.4 - Cloudy 10 - - - -
28/09:30pm 10.3 WSW 8 12 1016.8 - 0.4 - Cloudy 10 - - - -
28/09:00pm 10.3 WSW 9 11 1016.7 - 0.4 - Cloudy 10 - - - -
28/08:30pm 10.4 WSW 11 17 1016.6 - 0.4 - Partly cloudy 10 - - - -
28/08:00pm 10.7 WSW 11 14 1016.2 - 0.4 - Partly cloudy 10 - - - -
28/07:30pm 10.8 WSW 12 16 1015.9 - 0.4 - Cloudy 10 - - - -
28/07:00pm 11.0 WSW 8 13 1015.7 - 0.4 - Partly cloudy 10 - - - -
28/06:30pm 11.0 WSW 7 11 1015.2 - 0.4 - Partly cloudy 10 - - - -
28/06:00pm 11.4 WSW 9 13 1014.7 - 0.4 - Partly cloudy 10 - - - -
28/05:30pm 12.0 WSW 9 13 1014.2 - 0.4 - Cloudy 10 - - - -
28/05:00pm 12.2 SW 8 12 1013.8 - 0.4 - Partly cloudy 10 - - - -
28/04:30pm 12.8 SW 11 16 1013.4 - 0.4 - Partly cloudy 10 - - - -
28/04:00pm 12.8 SSW 10 13 1013.2 - 0.4 - Partly cloudy 10 - - - -
28/03:30pm 13.2 SW 16 22 1013.0 - 0.4 - Partly cloudy 10 - - - -
28/03:00pm 14.0 SSW 15 19 1012.6 - 0.4 - Mostly clear 10 - - - -
28/02:30pm 13.5 SSW 14 21 1012.3 - 0.4 - Partly cloudy 10 - - - -
28/02:00pm 12.9 SSW 10 14 1012.0 - 0.4 - Partly cloudy 10 - - - -
28/01:30pm 12.3 S 5 7 1011.9 - 0.4 - Partly cloudy 10 - - - -
28/01:00pm 11.6 SSW 7 9 1012.0 - 0.4 - Partly cloudy 10 - - - -
28/12:58pm 11.7 SSW 7 9 1012.0 - 0.4 - Partly cloudy 10 - - - -
28/12:42pm 11.5 SW 6 9 1012.0 - 0.2 - Partly cloudy 7 - - - -
28/12:30pm 11.9 WSW 7 11 1011.9 - 0.2 - Partly cloudy 10 - - - -
28/12:00pm 11.4 SSW 12 18 1012.1 - 0.2 - Cloudy 10 - - - -
28/11:30am 11.2 WSW 8 11 1012.1 - 0.2 - Partly cloudy 10 - - - -
28/11:00am 10.7 SW 8 11 1012.0 - 0.2 - Partly cloudy 10 - - - -
28/10:30am 11.2 SW 11 14 1011.9 - 0.0 - Partly cloudy 10 - - - -
28/10:00am 10.4 WSW 8 11 1011.7 - 0.0 - Partly cloudy 10 - - - -
28/09:30am 10.7 WSW 7 10 1011.3 - 0.0 - Partly cloudy 10 - - - -
28/09:00am 9.7 WSW 10 13 1011.2 - 0.4 - Mostly cloudy 10 - - - -
28/08:30am 8.9 W 7 10 1010.8 - 0.4 - Partly cloudy 10 - - - -
28/08:00am 8.6 W 6 10 1010.5 - 0.4 - Partly cloudy 10 - - - -
28/07:30am 8.5 W 7 9 1010.4 - 0.4 - Partly cloudy 10 - - - -
28/07:21am 8.5 WSW 7 9 1010.4 - 0.4 - Partly cloudy 10 - - - -
28/07:07am 8.3 SW 8 11 1010.3 - 0.4 - Partly cloudy 7 - - - -
28/07:00am 8.2 WSW 7 10 1010.2 - 0.0 - Partly cloudy 10 - - - -
28/06:30am 7.3 W 5 7 1009.5 - 0.0 - Partly cloudy 10 - - - -
28/06:00am 6.5 WNW 5 6 1009.1 - 0.0 - Mostly cloudy 10 - - - -
28/05:30am 5.7 NW 6 7 1008.9 - 0.0 - Partly cloudy 10 - - - -
28/05:00am 4.8 N 4 6 1008.8 - 0.0 - Partly cloudy 10 - - - -
28/04:30am 5.4 WSW 5 7 1008.6 - 0.0 - - 10 - - - -
28/04:00am 5.7 WSW 5 5 1008.4 - 0.0 - - 10 - - - -
28/03:30am 6.5 WSW 4 4 1008.3 - 0.0 - - 10 - - - -
28/03:00am 7.2 SSW 3 4 1008.5 - 0.0 - - 10 - - - -
28/02:57am 7.2 SSW 3 5 1008.4 - 0.0 - - 10 - - - -
28/02:41am 7.4 S 4 5 1008.4 - 0.0 - - 7 - - - -
28/02:30am 7.7 SSE 4 5 1008.4 - 0.0 - Partly cloudy 10 - - - -
28/02:00am 8.1 E 4 5 1008.3 - 0.0 - Cloudy 10 - - - -
28/01:30am 8.4 E 3 4 1008.2 - 0.0 - Cloudy 10 - - - -
28/01:00am 8.6 E 2 3 1008.3 - 0.0 - Cloudy 10 - - - -
28/12:30am 8.7 E 4 4 1008.2 - 0.0 - Cloudy 10 - - - -
28/12:00am 8.5 E 4 5 1008.4 - 0.0 - Cloudy 10 - - - -
 
Date/Time
EST
Temp

°C
Wind Pressure Rain
since 9am
mm
Weather Cloud Vis
km
Sea
Height
m
Swell
Dir
 
Speed
knots
Gust
knots
hPa Trend Height
m
Period
s
Dir
27/11:30pm 8.4 CALM 0 4 1008.3 - 0.0 - Cloudy 10 - - - -
27/11:00pm 8.1 CALM 0 0 1008.2 - 0.0 - Cloudy 10 - - - -
27/10:30pm 7.5 E 3 4 1008.1 - 0.0 - Cloudy 10 - - - -
27/10:00pm 7.2 E 3 4 1008.1 - 0.0 - Partly cloudy 10 - - - -
27/09:30pm 7.8 E 4 5 1008.0 - 0.0 - Partly cloudy 10 - - - -
27/09:00pm 8.6 E 4 5 1007.9 - 0.0 - - 10 - - - -

Other Formats:

Comma delimited format used in spreadsheet applications
http://www.bom.gov.au/fwo/IDV60701/IDV60701.94865.axf

JavaScript Object Notation format (JSON) in row-major order
http://www.bom.gov.au/fwo/IDV60701/IDV60701.94865.json